Terminal Aerodrome Forecast
Issued by NWS

Home | Current Version | Previous Version | Graphics & Text | Print | Product List | Glossary On
Versions: 1 2 3 4 5 6 7 8 9 10 11 12 13
918
FTUS43 KTOP 061720
TAFMHK
TAF
KMHK 061720Z 0618/0718 22008KT P6SM FEW250
     FM071300 28008KT P6SM BKN100
     FM071700 30013KT P6SM SCT100=

USA.gov is the U.S. government's official web portal to all federal, state and local government web resources and services.